Time;durP1;ratioP1;P1;durP2;ratioP2;P2;SDS_P1;SDS_P2;PMS_P1;PMS_P2;Temp;Humidity;BMP_temperature;BMP_pressure;BME280_temperature;BME280_humidity;BME280_pressure;Samples;Min_cycle;Max_cycle;Signal;HPM_P1;HPM_P2
2021/10/14 00:01:40;;;;;;;;;;;;;;;7.10;81.17;98815.70;1590161;89;21953;-86
2021/10/14 00:04:03;;;;;;;;;;;;;;;7.05;81.16;98813.33;1592587;86;26601;-86
2021/10/14 00:06:33;;;;;;;;;;;;;;;6.99;81.16;98812.78;1593692;88;24554;-88
2021/10/14 00:08:59;;;;;;;;;;;;;;;6.91;81.17;98817.08;1606830;87;20322;-83
2021/10/14 00:11:25;;;;;;;;;;;;;;;6.94;81.15;98818.22;1596972;87;20533;-87
2021/10/14 00:13:51;;;;;;;;;;;;;;;7.01;81.15;98815.70;1592382;88;22151;-88
2021/10/14 00:16:17;;;;;;;;;;;;;;;7.07;81.15;98818.01;1623652;87;20915;-89
2021/10/14 00:18:43;;;;;;;;;;;;;;;7.11;81.10;98822.14;1592134;88;20301;-85
2021/10/14 00:21:11;;;;;;;;;;;;;;;7.06;81.09;98812.41;1621689;87;20278;-87
2021/10/14 00:23:37;;;;;;;;;;;;;;;7.08;81.07;98818.40;1592495;88;24948;-88
2021/10/14 00:26:04;;;;;;;;;;;;;;;7.07;81.02;98822.37;1592199;88;20376;-83
2021/10/14 00:28:30;;;;;;;;;;;;;;;7.01;80.98;98823.52;1592145;88;26011;-86
2021/10/14 00:30:56;;;;;;;;;;;;;;;7.00;80.92;98822.28;1591985;88;20335;-86
2021/10/14 00:33:22;;;;;;;;;;;;;;;6.94;80.89;98822.12;1592822;88;20235;-89
2021/10/14 00:35:48;;;;;;;;;;;;;;;6.94;80.87;98823.88;1592825;88;24854;-82
2021/10/14 00:38:17;;;;;;;;;;;;;;;6.91;80.84;98818.38;1592835;88;20229;-82
2021/10/14 00:40:43;;;;;;;;;;;;;;;6.85;80.81;98812.17;1593475;87;25652;-84
2021/10/14 00:43:09;;;;;;;;;;;;;;;6.84;80.77;98814.38;1592651;88;24521;-87
2021/10/14 00:45:35;;;;;;;;;;;;;;;6.87;80.76;98814.25;1593484;88;20325;-87
2021/10/14 00:48:02;;;;;;;;;;;;;;;6.80;80.71;98816.76;1592516;88;20561;-83
2021/10/14 00:50:28;;;;;;;;;;;;;;;6.78;80.70;98816.44;1592811;88;21958;-85
2021/10/14 00:52:54;;;;;;;;;;;;;;;6.76;80.67;98813.09;1600405;88;20956;-87
2021/10/14 00:55:21;;;;;;;;;;;;;;;6.68;80.66;98814.28;1569655;90;24751;-86
2021/10/14 00:57:48;;;;;;;;;;;;;;;6.51;80.60;98818.59;1599484;87;20531;-85
2021/10/14 01:00:14;;;;;;;;;;;;;;;6.38;80.55;98814.45;1585581;89;25603;-83
2021/10/14 01:02:40;;;;;;;;;;;;;;;6.33;80.53;98813.80;1587905;89;21877;-89
2021/10/14 01:05:06;;;;;;;;;;;;;;;6.24;80.49;98812.48;1596692;85;21872;-86
2021/10/14 01:07:32;;;;;;;;;;;;;;;6.18;80.47;98815.36;1639280;86;24559;-89
2021/10/14 01:09:58;;;;;;;;;;;;;;;6.19;80.47;98814.45;1634622;86;20217;-89
2021/10/14 01:12:25;;;;;;;;;;;;;;;6.17;80.46;98811.07;1636801;86;20600;-85
2021/10/14 01:14:51;;;;;;;;;;;;;;;6.18;80.48;98814.52;1625428;86;22101;-87
2021/10/14 01:17:17;;;;;;;;;;;;;;;6.29;80.50;98813.11;1623032;87;26042;-85
2021/10/14 01:19:43;;;;;;;;;;;;;;;6.41;80.54;98816.89;1622302;87;24433;-87
2021/10/14 01:22:18;;;;;;;;;;;;;;;6.39;80.57;98809.61;1632218;86;20292;-88
2021/10/14 01:24:49;;;;;;;;;;;;;;;6.28;80.53;98814.02;1604936;88;24962;-84
2021/10/14 01:27:12;;;;;;;;;;;;;;;6.16;80.52;98812.01;1628144;86;21738;-88
2021/10/14 01:29:43;;;;;;;;;;;;;;;6.15;80.48;98820.71;1608308;88;25971;-88
2021/10/14 01:32:09;;;;;;;;;;;;;;;6.26;80.49;98816.31;1632802;86;24581;-88
2021/10/14 01:34:35;;;;;;;;;;;;;;;6.33;80.48;98812.50;1621384;87;20366;-87
2021/10/14 01:37:01;;;;;;;;;;;;;;;6.37;80.48;98817.12;1605485;88;20304;-84
2021/10/14 01:39:27;;;;;;;;;;;;;;;6.41;80.43;98816.05;1600737;88;22032;-84
2021/10/14 01:41:56;;;;;;;;;;;;;;;6.40;80.44;98817.80;1641056;85;26788;-84
2021/10/14 01:44:22;;;;;;;;;;;;;;;6.41;80.43;98821.25;1639876;85;25174;-84
2021/10/14 01:46:48;;;;;;;;;;;;;;;6.39;80.38;98820.02;1641378;85;20218;-87
2021/10/14 01:49:16;;;;;;;;;;;;;;;6.38;80.34;98821.41;1641369;85;25615;-87
2021/10/14 01:51:42;;;;;;;;;;;;;;;6.38;80.30;98825.30;1640135;85;21970;-85
2021/10/14 01:54:08;;;;;;;;;;;;;;;6.38;80.29;98830.05;1640847;85;26031;-89
2021/10/14 01:56:34;;;;;;;;;;;;;;;6.40;80.28;98826.91;1643250;85;24504;-86
2021/10/14 01:59:00;;;;;;;;;;;;;;;6.39;80.27;98834.77;1640170;85;20297;-89
2021/10/14 02:01:26;;;;;;;;;;;;;;;6.36;80.29;98832.32;1640676;85;24885;-86
2021/10/14 02:03:52;;;;;;;;;;;;;;;6.41;80.30;98835.55;1641666;85;21964;-89
2021/10/14 02:06:20;;;;;;;;;;;;;;;6.45;80.33;98837.92;1615025;85;21303;-84
2021/10/14 02:08:46;;;;;;;;;;;;;;;6.44;80.35;98835.39;1645033;85;24486;-87
2021/10/14 02:11:12;;;;;;;;;;;;;;;6.47;80.38;98838.70;1644968;85;20311;-87
2021/10/14 02:13:39;;;;;;;;;;;;;;;6.56;80.42;98837.42;1644289;85;25003;-89
2021/10/14 02:16:05;;;;;;;;;;;;;;;6.60;80.45;98837.20;1645556;85;22538;-88
2021/10/14 02:18:31;;;;;;;;;;;;;;;6.66;80.49;98840.81;1647513;85;25999;-89
2021/10/14 02:20:57;;;;;;;;;;;;;;;6.72;80.55;98839.67;1644575;85;24401;-90
2021/10/14 02:23:26;;;;;;;;;;;;;;;6.73;80.58;98838.31;1643821;85;20341;-86
2021/10/14 02:25:52;;;;;;;;;;;;;;;6.64;80.62;98840.52;1643762;85;20237;-90
2021/10/14 02:28:18;;;;;;;;;;;;;;;6.55;80.62;98837.88;1636301;85;21846;-89
2021/10/14 02:30:44;;;;;;;;;;;;;;;6.52;80.64;98843.23;1646636;85;26126;-89
2021/10/14 02:33:10;;;;;;;;;;;;;;;6.48;80.64;98837.80;1643645;85;24639;-87
2021/10/14 02:35:36;;;;;;;;;;;;;;;6.53;80.70;98835.83;1644246;85;20496;-89
2021/10/14 02:38:03;;;;;;;;;;;;;;;6.55;80.72;98835.73;1645743;85;25592;-84
2021/10/14 02:40:29;;;;;;;;;;;;;;;6.53;80.74;98835.83;1644568;85;20336;-86
2021/10/14 02:42:55;;;;;;;;;;;;;;;6.59;80.76;98832.94;1644546;85;26096;-90
2021/10/14 02:45:21;;;;;;;;;;;;;;;6.70;80.80;98828.52;1644624;85;24511;-89
2021/10/14 02:47:47;;;;;;;;;;;;;;;6.77;80.80;98824.69;1644822;85;20300;-89
2021/10/14 02:50:13;;;;;;;;;;;;;;;6.77;80.81;98829.05;1644641;85;25042;-89
2021/10/14 02:52:40;;;;;;;;;;;;;;;6.64;80.79;98819.26;1644037;85;22030;-85
2021/10/14 02:55:06;;;;;;;;;;;;;;;6.64;80.80;98818.41;1644174;85;26824;-84
2021/10/14 02:57:32;;;;;;;;;;;;;;;6.65;80.79;98829.20;1643854;85;24396;-87
2021/10/14 02:59:58;;;;;;;;;;;;;;;6.69;80.79;98830.73;1644990;85;20233;-87
2021/10/14 03:02:27;;;;;;;;;;;;;;;6.67;80.78;98832.10;1645202;85;25036;-87
2021/10/14 03:04:53;;;;;;;;;;;;;;;6.60;80.76;98834.59;1614126;86;21933;-85
2021/10/14 03:07:19;;;;;;;;;;;;;;;6.54;80.74;98834.07;1658213;85;20984;-82
2021/10/14 03:09:45;;;;;;;;;;;;;;;6.57;80.72;98826.95;1649376;85;25372;-82
2021/10/14 03:12:11;;;;;;;;;;;;;;;6.66;80.74;98831.71;1621707;87;20175;-82
2021/10/14 03:14:37;;;;;;;;;;;;;;;6.75;80.74;98837.41;1621223;87;25027;-82
2021/10/14 03:17:03;;;;;;;;;;;;;;;6.82;80.75;98837.50;1658395;85;22000;-87
2021/10/14 03:19:29;;;;;;;;;;;;;;;6.87;80.76;98834.22;1654614;85;21198;-87
2021/10/14 03:21:55;;;;;;;;;;;;;;;6.89;80.77;98838.88;1646034;86;20247;-87
2021/10/14 03:24:21;;;;;;;;;;;;;;;6.92;80.78;98840.89;1653104;85;20405;-86
2021/10/14 03:26:47;;;;;;;;;;;;;;;6.95;80.77;98847.23;1626501;87;25036;-89
2021/10/14 03:29:13;;;;;;;;;;;;;;;6.97;80.78;98849.31;1658977;85;21984;-87
2021/10/14 03:31:39;;;;;;;;;;;;;;;6.97;80.78;98857.11;1649847;85;21038;-89
2021/10/14 03:34:05;;;;;;;;;;;;;;;6.95;80.76;98856.33;1625321;87;20330;-82
2021/10/14 03:36:31;;;;;;;;;;;;;;;6.97;80.78;98863.62;1615792;87;20296;-90
2021/10/14 03:38:57;;;;;;;;;;;;;;;6.93;80.77;98869.02;1627356;87;20955;-89
2021/10/14 03:41:23;;;;;;;;;;;;;;;6.88;80.78;98861.89;1650629;84;21779;-83
2021/10/14 03:43:49;;;;;;;;;;;;;;;6.85;80.80;98867.26;1649067;84;21053;-90
2021/10/14 03:46:15;;;;;;;;;;;;;;;6.81;80.82;98869.17;1653224;84;20312;-87
2021/10/14 03:48:41;;;;;;;;;;;;;;;6.84;80.84;98868.17;1651153;85;20391;-87
2021/10/14 03:51:07;;;;;;;;;;;;;;;6.88;80.85;98864.50;1651914;85;20249;-87
2021/10/14 03:53:34;;;;;;;;;;;;;;;6.86;80.87;98871.09;1652175;85;20753;-88
2021/10/14 03:56:00;;;;;;;;;;;;;;;6.84;80.87;98878.12;1652475;85;26019;-88
2021/10/14 03:58:26;;;;;;;;;;;;;;;6.86;80.92;98878.05;1651225;85;24427;-86
2021/10/14 04:00:53;;;;;;;;;;;;;;;6.85;80.93;98868.56;1651026;85;20162;-86
2021/10/14 04:03:19;;;;;;;;;;;;;;;6.80;80.91;98871.38;1651012;85;24966;-84
2021/10/14 04:05:45;;;;;;;;;;;;;;;6.79;80.88;98868.84;1654748;85;21955;-85
2021/10/14 04:08:11;;;;;;;;;;;;;;;6.77;80.90;98879.77;1651257;85;21730;-89
2021/10/14 04:10:37;;;;;;;;;;;;;;;6.81;80.90;98880.87;1651871;85;25274;-85
2021/10/14 04:13:04;;;;;;;;;;;;;;;6.84;80.93;98875.97;1651036;85;20250;-84
2021/10/14 04:15:31;;;;;;;;;;;;;;;6.76;80.94;98882.02;1651007;85;24954;-88
2021/10/14 04:17:57;;;;;;;;;;;;;;;6.67;80.95;98881.97;1651990;85;21967;-84
2021/10/14 04:20:24;;;;;;;;;;;;;;;6.61;80.99;98887.00;1650941;85;26966;-86
2021/10/14 04:22:51;;;;;;;;;;;;;;;6.65;81.05;98879.91;1650957;85;24430;-86
2021/10/14 04:25:17;;;;;;;;;;;;;;;6.66;81.12;98882.88;1650966;85;20292;-87
2021/10/14 04:27:44;;;;;;;;;;;;;;;6.61;81.15;98883.09;1650945;85;24937;-87
2021/10/14 04:30:10;;;;;;;;;;;;;;;6.62;81.20;98884.79;1651066;85;22039;-85
2021/10/14 04:32:39;;;;;;;;;;;;;;;6.65;81.26;98891.62;1651840;85;26135;-85
2021/10/14 04:35:09;;;;;;;;;;;;;;;6.79;81.34;98892.26;1649040;85;24476;-87
2021/10/14 04:37:37;;;;;;;;;;;;;;;6.90;81.41;98888.69;1650875;85;20327;-84
2021/10/14 04:40:06;;;;;;;;;;;;;;;7.03;81.48;98895.85;1652380;85;25036;-85
2021/10/14 04:42:32;;;;;;;;;;;;;;;7.11;81.54;98900.21;1648002;85;22266;-86
2021/10/14 04:44:58;;;;;;;;;;;;;;;7.18;81.57;98901.22;1628832;87;26078;-83
2021/10/14 04:47:24;;;;;;;;;;;;;;;7.24;81.56;98899.62;1653568;86;25248;-85
2021/10/14 04:49:50;;;;;;;;;;;;;;;7.29;81.58;98904.14;1650211;85;20280;-85
2021/10/14 04:52:16;;;;;;;;;;;;;;;7.29;81.59;98894.58;1649065;86;25003;-87
2021/10/14 04:54:42;;;;;;;;;;;;;;;7.30;81.62;98901.47;1651776;85;22551;-86
2021/10/14 04:57:09;;;;;;;;;;;;;;;7.25;81.58;98901.31;1645658;85;26859;-86
2021/10/14 04:59:35;;;;;;;;;;;;;;;7.27;81.59;98909.41;1645878;85;24522;-86
2021/10/14 05:02:01;;;;;;;;;;;;;;;7.28;81.56;98911.56;1646040;85;20225;-82
2021/10/14 05:04:27;;;;;;;;;;;;;;;7.29;81.56;98909.34;1645674;85;25782;-82
2021/10/14 05:06:54;;;;;;;;;;;;;;;7.27;81.55;98915.92;1635655;85;20202;-82
2021/10/14 05:09:19;;;;;;;;;;;;;;;7.29;81.55;98911.50;1627592;86;26011;-82
2021/10/14 05:11:46;;;;;;;;;;;;;;;7.37;81.58;98905.89;1628433;86;24612;-82
2021/10/14 05:14:12;;;;;;;;;;;;;;;7.42;81.59;98911.72;1627887;86;20263;-86
2021/10/14 05:16:38;;;;;;;;;;;;;;;7.46;81.57;98909.37;1628407;86;20788;-87
2021/10/14 05:19:04;;;;;;;;;;;;;;;7.44;81.56;98911.19;1627625;86;21946;-84
2021/10/14 05:21:30;;;;;;;;;;;;;;;7.28;81.55;98909.80;1628342;87;26042;-82
2021/10/14 05:24:02;;;;;;;;;;;;;;;7.15;81.54;98919.11;1626644;86;24675;-82
2021/10/14 05:26:26;;;;;;;;;;;;;;;7.03;81.50;98917.97;1628127;86;20341;-82
2021/10/14 05:28:52;;;;;;;;;;;;;;;6.95;81.50;98922.68;1627698;86;25218;-82
2021/10/14 05:31:19;;;;;;;;;;;;;;;6.88;81.51;98913.47;1628074;86;22052;-83
2021/10/14 05:33:45;;;;;;;;;;;;;;;6.84;81.49;98921.49;1628070;86;21724;-86
2021/10/14 05:36:11;;;;;;;;;;;;;;;6.81;81.52;98913.39;1627632;86;24457;-84
2021/10/14 05:38:37;;;;;;;;;;;;;;;6.79;81.55;98918.27;1628359;86;20276;-84
2021/10/14 05:41:03;;;;;;;;;;;;;;;6.78;81.58;98926.52;1627929;86;24960;-82
2021/10/14 05:43:29;;;;;;;;;;;;;;;6.80;81.61;98919.51;1627207;86;22003;-86
2021/10/14 05:45:58;;;;;;;;;;;;;;;6.82;81.66;98918.95;1627273;86;25997;-88
2021/10/14 05:48:24;;;;;;;;;;;;;;;6.89;81.73;98924.72;1628538;86;24501;-85
2021/10/14 05:50:51;;;;;;;;;;;;;;;7.02;81.81;98930.59;1628716;86;20506;-82
2021/10/14 05:53:17;;;;;;;;;;;;;;;7.18;81.90;98935.05;1627697;86;24956;-88
2021/10/14 05:55:45;;;;;;;;;;;;;;;7.25;81.96;98929.95;1628590;86;21990;-87
2021/10/14 05:58:11;;;;;;;;;;;;;;;7.28;82.05;98941.50;1602689;87;25979;-82
2021/10/14 06:00:37;;;;;;;;;;;;;;;7.31;82.11;98935.67;1634726;85;24365;-82
2021/10/14 06:03:03;;;;;;;;;;;;;;;7.34;82.14;98936.00;1635081;85;20321;-81
2021/10/14 06:05:30;;;;;;;;;;;;;;;7.44;82.17;98930.72;1634803;85;20720;-88
2021/10/14 06:07:56;;;;;;;;;;;;;;;7.51;82.18;98932.96;1635976;85;22665;-87
2021/10/14 06:10:22;;;;;;;;;;;;;;;7.53;82.16;98932.86;1638077;85;26020;-88
2021/10/14 06:12:48;;;;;;;;;;;;;;;7.50;82.13;98931.72;1637147;85;24536;-82
2021/10/14 06:15:14;;;;;;;;;;;;;;;7.45;82.11;98928.50;1637775;85;20253;-86
2021/10/14 06:17:40;;;;;;;;;;;;;;;7.49;82.10;98930.03;1636733;85;25667;-86
2021/10/14 06:20:06;;;;;;;;;;;;;;;7.48;82.08;98929.64;1637303;85;21935;-82
2021/10/14 06:22:33;;;;;;;;;;;;;;;7.58;82.08;98926.14;1636990;85;26010;-82
2021/10/14 06:24:59;;;;;;;;;;;;;;;7.61;82.06;98928.13;1637103;86;24539;-82
2021/10/14 06:27:25;;;;;;;;;;;;;;;7.66;82.04;98923.53;1637924;85;20277;-88
2021/10/14 06:29:52;;;;;;;;;;;;;;;7.70;82.03;98932.02;1636325;85;24914;-84
2021/10/14 06:32:18;;;;;;;;;;;;;;;7.71;81.98;98933.25;1636533;85;22001;-82
2021/10/14 06:34:44;;;;;;;;;;;;;;;7.76;81.95;98933.02;1638025;86;21090;-88
2021/10/14 06:37:10;;;;;;;;;;;;;;;7.80;81.91;98926.27;1637521;85;24410;-86
2021/10/14 06:39:36;;;;;;;;;;;;;;;7.81;81.88;98925.35;1637163;85;20221;-85
2021/10/14 06:42:03;;;;;;;;;;;;;;;7.82;81.84;98923.13;1637941;85;24952;-84
2021/10/14 06:44:29;;;;;;;;;;;;;;;7.82;81.75;98923.13;1634804;85;22110;-87
2021/10/14 06:46:56;;;;;;;;;;;;;;;7.83;81.68;98922.22;1637795;85;26965;-86
2021/10/14 06:49:22;;;;;;;;;;;;;;;7.83;81.62;98918.31;1637166;85;24584;-86
2021/10/14 06:51:48;;;;;;;;;;;;;;;7.83;81.56;98920.92;1636817;85;20231;-88
2021/10/14 06:54:14;;;;;;;;;;;;;;;7.82;81.49;98916.63;1637714;85;24987;-82
2021/10/14 06:56:40;;;;;;;;;;;;;;;7.79;81.44;98914.19;1639163;85;22118;-86
2021/10/14 06:59:06;;;;;;;;;;;;;;;7.81;81.36;98912.78;1636881;85;26335;-82
2021/10/14 07:01:32;;;;;;;;;;;;;;;7.82;81.31;98914.47;1636864;85;24533;-84
2021/10/14 07:03:58;;;;;;;;;;;;;;;7.87;81.28;98916.38;1636754;85;20234;-84
2021/10/14 07:06:24;;;;;;;;;;;;;;;7.92;81.26;98913.92;1636896;85;25033;-85
2021/10/14 07:08:51;;;;;;;;;;;;;;;7.93;81.24;98913.47;1637091;85;21986;-86
2021/10/14 07:11:17;;;;;;;;;;;;;;;7.92;81.22;98920.90;1636863;85;26108;-86
2021/10/14 07:13:45;;;;;;;;;;;;;;;7.93;81.18;98910.86;1637859;85;20285;-88
2021/10/14 07:16:11;;;;;;;;;;;;;;;7.96;81.14;98913.33;1638096;85;20183;-86
2021/10/14 07:18:38;;;;;;;;;;;;;;;7.99;81.12;98913.16;1637004;85;25715;-82
2021/10/14 07:21:04;;;;;;;;;;;;;;;8.08;81.10;98914.42;1637136;85;22726;-82
2021/10/14 07:23:30;;;;;;;;;;;;;;;8.12;81.08;98916.82;1636565;85;26153;-82
2021/10/14 07:25:56;;;;;;;;;;;;;;;8.14;81.06;98915.41;1629253;86;24515;-88
2021/10/14 07:28:22;;;;;;;;;;;;;;;8.17;81.03;98914.81;1605253;87;20382;-82
2021/10/14 07:30:48;;;;;;;;;;;;;;;8.18;81.00;98913.05;1601393;88;24946;-87
2021/10/14 07:33:16;;;;;;;;;;;;;;;8.16;80.91;98909.22;1606976;88;22058;-82
2021/10/14 07:35:42;;;;;;;;;;;;;;;8.12;80.82;98913.38;1638819;85;25911;-82
2021/10/14 07:38:14;;;;;;;;;;;;;;;8.08;80.74;98905.30;1638490;85;20257;-82
2021/10/14 07:40:43;;;;;;;;;;;;;;;8.06;80.66;98905.86;1638220;85;20362;-88
2021/10/14 07:43:10;;;;;;;;;;;;;;;8.02;80.57;98909.07;1604652;87;24977;-86
2021/10/14 07:45:36;;;;;;;;;;;;;;;7.98;80.47;98907.09;1637278;85;21962;-84
2021/10/14 07:48:03;;;;;;;;;;;;;;;7.96;80.41;98901.11;1637283;85;21081;-87
2021/10/14 07:50:29;;;;;;;;;;;;;;;7.95;80.34;98899.91;1636660;85;25460;-84
2021/10/14 07:52:55;;;;;;;;;;;;;;;7.96;80.31;98901.59;1637590;86;20509;-86
2021/10/14 07:55:21;;;;;;;;;;;;;;;7.97;80.25;98898.89;1636894;85;24337;-82
2021/10/14 07:57:47;;;;;;;;;;;;;;;8.03;80.21;98890.37;1638216;85;21976;-82
2021/10/14 08:00:13;;;;;;;;;;;;;;;8.06;80.18;98898.05;1637876;85;25998;-87
2021/10/14 08:02:41;;;;;;;;;;;;;;;8.07;80.14;98895.37;1621038;87;39830;-83
2021/10/14 08:05:07;;;;;;;;;;;;;;;8.13;80.11;98909.84;1637980;85;20251;-87
2021/10/14 08:07:33;;;;;;;;;;;;;;;8.15;80.06;98907.98;1639687;85;25281;-82
2021/10/14 08:10:00;;;;;;;;;;;;;;;8.16;80.01;98910.98;1643999;85;22002;-83
2021/10/14 08:12:26;;;;;;;;;;;;;;;8.18;79.97;98909.95;1648535;85;26049;-85
2021/10/14 08:14:53;;;;;;;;;;;;;;;8.21;79.91;98918.09;1642748;85;24517;-84
2021/10/14 08:17:20;;;;;;;;;;;;;;;8.23;79.86;98918.86;1647710;85;20134;-82
2021/10/14 08:19:47;;;;;;;;;;;;;;;8.30;79.81;98917.17;1646797;85;20359;-82
2021/10/14 08:22:13;;;;;;;;;;;;;;;8.36;79.78;98909.48;1646019;85;21975;-82
2021/10/14 08:24:40;;;;;;;;;;;;;;;8.44;79.77;98906.48;1647768;85;21024;-82
2021/10/14 08:27:06;;;;;;;;;;;;;;;8.47;79.71;98909.75;1648942;85;25441;-87
2021/10/14 08:29:32;;;;;;;;;;;;;;;8.51;79.66;98904.74;1645372;85;20221;-86
2021/10/14 08:32:01;;;;;;;;;;;;;;;8.57;79.60;98903.57;1645265;85;25028;-86
2021/10/14 08:34:26;;;;;;;;;;;;;;;8.61;79.54;98909.88;1645065;85;22108;-86
2021/10/14 08:36:52;;;;;;;;;;;;;;;8.68;79.50;98901.22;1644870;85;26121;-84
2021/10/14 08:39:19;;;;;;;;;;;;;;;8.73;79.46;98906.57;1645306;85;24515;-88
2021/10/14 08:41:47;;;;;;;;;;;;;;;8.81;79.40;98903.55;1644760;85;20344;-88
2021/10/14 08:44:25;;;;;;;;;;;;;;;8.88;79.34;98906.67;1636154;85;24873;-88
2021/10/14 08:46:48;;;;;;;;;;;;;;;8.95;79.27;98906.69;1599132;87;22148;-87
2021/10/14 08:49:15;;;;;;;;;;;;;;;9.01;79.23;98901.13;1621359;87;26005;-86
2021/10/14 08:51:41;;;;;;;;;;;;;;;9.10;79.18;98908.00;1629214;86;24421;-87
2021/10/14 08:54:07;;;;;;;;;;;;;;;9.17;79.10;98893.65;1634315;86;20246;-83
2021/10/14 08:56:33;;;;;;;;;;;;;;;9.26;79.04;98889.69;1627917;86;25021;-84
2021/10/14 08:59:02;;;;;;;;;;;;;;;9.35;78.98;98894.38;1622784;87;21936;-84
2021/10/14 09:01:28;;;;;;;;;;;;;;;9.39;78.92;98895.87;1644080;85;26047;-84
2021/10/14 09:03:54;;;;;;;;;;;;;;;9.45;78.85;98895.98;1644268;85;24427;-87
2021/10/14 09:06:21;;;;;;;;;;;;;;;9.50;78.71;98901.32;1646708;85;20537;-86
2021/10/14 09:08:48;;;;;;;;;;;;;;;9.57;78.58;98903.97;1640858;85;25032;-84
2021/10/14 09:11:16;;;;;;;;;;;;;;;9.70;78.54;98910.63;1638580;85;22804;-88
2021/10/14 09:13:47;;;;;;;;;;;;;;;9.82;78.46;98902.54;1640518;85;26910;-84
2021/10/14 09:16:24;;;;;;;;;;;;;;;9.88;78.41;98907.38;1639299;85;24563;-87
2021/10/14 09:18:51;;;;;;;;;;;;;;;9.94;78.30;98909.63;1640472;85;20271;-82
2021/10/14 09:21:24;;;;;;;;;;;;;;;10.02;78.17;98909.56;1639366;85;25055;-87
2021/10/14 09:23:52;;;;;;;;;;;;;;;10.08;78.07;98905.73;1641242;85;22809;-87
2021/10/14 09:26:32;;;;;;;;;;;;;;;10.17;77.98;98905.20;1638971;85;26061;-87
2021/10/14 09:29:05;;;;;;;;;;;;;;;10.21;77.88;98907.16;1641518;85;25184;-85
2021/10/14 09:31:34;;;;;;;;;;;;;;;10.27;77.76;98899.78;1639291;85;20170;-88
2021/10/14 09:34:00;;;;;;;;;;;;;;;10.30;77.63;98903.53;1639766;85;25000;-88
2021/10/14 09:36:28;;;;;;;;;;;;;;;10.32;77.50;98896.41;1638175;85;22178;-88
2021/10/14 09:39:03;;;;;;;;;;;;;;;10.34;77.36;98893.25;1639332;85;26871;-84
2021/10/14 09:41:30;;;;;;;;;;;;;;;10.36;77.19;98891.39;1640787;85;24525;-83
2021/10/14 09:44:04;;;;;;;;;;;;;;;10.37;77.07;98885.66;1642241;85;20248;-83
2021/10/14 09:46:37;;;;;;;;;;;;;;;10.40;76.93;98892.03;1641810;85;25005;-88
2021/10/14 09:49:04;;;;;;;;;;;;;;;10.40;76.74;98894.19;1642035;85;22077;-84
2021/10/14 09:51:30;;;;;;;;;;;;;;;10.37;76.56;98888.28;1641773;85;26043;-84
2021/10/14 09:53:58;;;;;;;;;;;;;;;10.38;76.42;98889.50;1640696;85;24554;-82
2021/10/14 09:56:26;;;;;;;;;;;;;;;10.41;76.29;98893.25;1639679;85;20236;-84
2021/10/14 09:58:53;;;;;;;;;;;;;;;10.51;76.18;98893.98;1606047;87;25026;-88
2021/10/14 10:01:19;;;;;;;;;;;;;;;10.56;76.07;98895.84;1603865;87;22255;-87
2021/10/14 10:03:47;;;;;;;;;;;;;;;10.68;75.99;98893.31;1609886;87;25973;-88
2021/10/14 10:06:13;;;;;;;;;;;;;;;10.78;75.90;98890.48;1620481;87;25343;-87
2021/10/14 10:08:41;;;;;;;;;;;;;;;10.85;75.79;98893.55;1646205;85;20359;-87
2021/10/14 10:11:13;;;;;;;;;;;;;;;10.87;75.63;98892.97;1658259;84;25786;-87
2021/10/14 10:13:40;;;;;;;;;;;;;;;10.86;75.42;98893.90;1657989;84;22034;-88
2021/10/14 10:16:20;;;;;;;;;;;;;;;10.83;75.21;98896.27;1647749;85;26053;-85
2021/10/14 10:18:48;;;;;;;;;;;;;;;10.88;75.01;98898.58;1619259;87;24453;-89
2021/10/14 10:21:34;;;;;;;;;;;;;;;10.92;74.87;98892.20;1649549;83;20325;-84
2021/10/14 10:24:01;;;;;;;;;;;;;;;10.99;74.79;98899.20;1651680;85;25127;-83
2021/10/14 10:26:35;;;;;;;;;;;;;;;11.02;74.65;98884.12;1651153;85;21977;-87
2021/10/14 10:29:02;;;;;;;;;;;;;;;11.03;74.50;98884.97;1658206;84;26228;-84
2021/10/14 10:31:51;;;;;;;;;;;;;;;11.02;74.30;98885.43;1658625;84;25292;-84
2021/10/14 10:34:40;;;;;;;;;;;;;;;11.10;74.21;98877.94;1655055;85;20200;-87
2021/10/14 10:37:25;;;;;;;;;;;;;;;11.22;74.13;98871.91;1650846;85;24991;-85
2021/10/14 10:39:56;;;;;;;;;;;;;;;11.30;74.02;98864.36;1652080;85;21992;-87
2021/10/14 10:42:30;;;;;;;;;;;;;;;11.27;73.81;98867.20;1623345;87;26252;-86
2021/10/14 10:44:59;;;;;;;;;;;;;;;11.26;73.61;98856.34;1645375;85;25103;-87
2021/10/14 10:47:45;;;;;;;;;;;;;;;11.32;73.44;98856.41;1620824;87;20231;-87
2021/10/14 10:50:21;;;;;;;;;;;;;;;11.38;73.30;98849.92;1647310;86;25623;-84
2021/10/14 10:52:48;;;;;;;;;;;;;;;11.41;73.12;98852.33;1646325;86;22006;-83
2021/10/14 10:55:24;;;;;;;;;;;;;;;11.45;72.88;98848.11;1651387;85;26225;-87
2021/10/14 10:57:52;;;;;;;;;;;;;;;11.51;72.64;98841.13;1625338;87;24552;-85
2021/10/14 11:00:19;;;;;;;;;;;;;;;11.57;72.44;98841.19;1647305;85;20566;-88
2021/10/14 11:02:46;;;;;;;;;;;;;;;11.63;72.27;98841.62;1648383;85;24992;-83
2021/10/14 11:05:12;;;;;;;;;;;;;;;11.68;72.08;98838.21;1646349;85;22627;-82
2021/10/14 11:07:38;;;;;;;;;;;;;;;11.68;71.87;98836.05;1674410;85;26206;-83
2021/10/14 11:10:04;;;;;;;;;;;;;;;11.70;71.64;98831.09;1601711;85;25152;-88
2021/10/14 11:12:33;;;;;;;;;;;;;;;11.74;71.46;98822.56;1606477;86;20295;-89
2021/10/14 11:15:01;;;;;;;;;;;;;;;11.80;71.25;98813.44;1650059;85;25323;-87
2021/10/14 11:17:27;;;;;;;;;;;;;;;11.96;71.12;98818.00;1636080;85;22722;-82
2021/10/14 11:20:06;;;;;;;;;;;;;;;12.04;70.96;98812.60;1621894;87;26617;-82
2021/10/14 11:22:32;;;;;;;;;;;;;;;12.04;70.73;98807.36;1623353;87;24466;-82
2021/10/14 11:25:03;;;;;;;;;;;;;;;12.08;70.55;98806.19;1629786;87;20248;-85
2021/10/14 11:27:26;;;;;;;;;;;;;;;12.10;70.33;98811.34;1623336;86;25867;-88
2021/10/14 11:29:53;;;;;;;;;;;;;;;12.10;70.09;98813.48;1629288;87;20248;-87
2021/10/14 11:32:30;;;;;;;;;;;;;;;12.07;69.84;98807.13;1622804;87;26249;-84
2021/10/14 11:34:47;;;;;;;;;;;;;;;12.12;69.65;98807.64;1639906;86;23989;-82
2021/10/14 11:37:13;;;;;;;;;;;;;;;12.14;69.44;98800.52;1629006;87;21340;-82
2021/10/14 11:39:43;;;;;;;;;;;;;;;12.16;69.29;98795.17;1634530;87;25036;-82
2021/10/14 11:42:20;;;;;;;;;;;;;;;12.13;69.10;98791.43;1626293;87;22098;-85
2021/10/14 11:44:48;;;;;;;;;;;;;;;12.06;68.91;98792.33;1625538;87;25631;-87
2021/10/14 11:47:15;;;;;;;;;;;;;;;12.03;68.76;98788.63;1626728;87;24629;-88
2021/10/14 11:49:41;;;;;;;;;;;;;;;11.99;68.62;98792.41;1625099;87;20446;-87
2021/10/14 11:52:08;;;;;;;;;;;;;;;12.00;68.57;98789.31;1625606;87;25805;-87
2021/10/14 11:54:38;;;;;;;;;;;;;;;12.02;68.51;98784.78;1617405;87;22008;-85
2021/10/14 11:57:05;;;;;;;;;;;;;;;12.06;68.40;98788.86;1636985;87;26058;-85
2021/10/14 11:59:32;;;;;;;;;;;;;;;12.12;68.27;98783.19;1631805;87;25253;-84
2021/10/14 12:02:00;;;;;;;;;;;;;;;12.13;68.10;98784.88;1626722;87;20389;-82
2021/10/14 12:04:35;;;;;;;;;;;;;;;12.20;68.02;98782.66;1625539;86;22168;-82
2021/10/14 12:07:02;;;;;;;;;;;;;;;12.24;67.91;98775.77;1633564;87;22067;-82
2021/10/14 12:09:30;;;;;;;;;;;;;;;12.27;67.78;98772.09;1617056;87;26034;-84
2021/10/14 12:11:57;;;;;;;;;;;;;;;12.32;67.67;98763.42;1597036;88;25245;-82
2021/10/14 12:14:24;;;;;;;;;;;;;;;12.36;67.56;98767.50;1596173;88;20599;-86
2021/10/14 12:17:03;;;;;;;;;;;;;;;12.38;67.40;98761.67;1605484;88;24776;-86
2021/10/14 12:19:36;;;;;;;;;;;;;;;12.37;67.25;98757.37;1611593;88;21994;-87
2021/10/14 12:22:01;;;;;;;;;;;;;;;12.41;67.07;98757.50;1604727;87;26030;-82
2021/10/14 12:24:31;;;;;;;;;;;;;;;12.46;66.96;98753.59;1598702;87;25040;-85
2021/10/14 12:26:55;;;;;;;;;;;;;;;12.49;66.81;98760.42;1598570;88;20307;-83
2021/10/14 12:29:26;;;;;;;;;;;;;;;12.45;66.62;98755.02;1624613;86;25170;-82
2021/10/14 12:32:09;;;;;;;;;;;;;;;12.47;66.45;98759.69;1609341;88;22160;-87
2021/10/14 12:34:40;;;;;;;;;;;;;;;12.43;66.26;98755.62;1597983;88;26103;-83
2021/10/14 12:37:07;;;;;;;;;;;;;;;12.38;66.03;98764.30;1601119;86;24430;-84
2021/10/14 12:39:33;;;;;;;;;;;;;;;12.32;65.84;98762.95;1598924;88;20313;-86
2021/10/14 12:41:59;;;;;;;;;;;;;;;12.25;65.63;98763.48;1618423;87;25024;-87
2021/10/14 12:47:06;;;;;;;;;;;;;;;12.13;65.24;98764.72;1601336;88;26027;-87
2021/10/14 12:49:50;;;;;;;;;;;;;;;12.09;65.10;98759.81;1590928;87;24722;-87
2021/10/14 12:52:15;;;;;;;;;;;;;;;12.09;64.96;98767.20;1606348;86;20224;-85
2021/10/14 12:54:41;;;;;;;;;;;;;;;12.09;64.88;98759.34;1603155;88;25209;-87
2021/10/14 12:57:07;;;;;;;;;;;;;;;12.13;64.85;98758.16;1605910;86;22547;-87
2021/10/14 12:59:37;;;;;;;;;;;;;;;12.14;64.83;98754.59;1583803;89;25982;-82